createdAt,value
2019-02-26T00:01:38.558Z,102786.00
2019-02-26T00:04:09.871Z,102777.00
2019-02-26T00:06:42.439Z,102775.00
2019-02-26T00:09:12.368Z,102762.00
2019-02-26T00:11:53.777Z,102758.00
2019-02-26T00:14:27.370Z,102744.00
2019-02-26T00:16:57.033Z,102746.00
2019-02-26T00:19:27.808Z,102744.00
2019-02-26T00:21:58.208Z,102750.00
2019-02-26T00:24:30.763Z,102748.00
2019-02-26T00:27:03.133Z,102752.00
2019-02-26T00:29:33.799Z,102754.00
2019-02-26T00:32:04.706Z,102752.00
2019-02-26T00:34:37.305Z,102762.00
2019-02-26T00:37:08.521Z,102750.00
2019-02-26T00:39:39.086Z,102751.00
2019-02-26T00:42:09.781Z,102755.00
2019-02-26T00:44:40.153Z,102758.00
2019-02-26T00:47:10.882Z,102763.00
2019-02-26T00:49:42.483Z,102766.00
2019-02-26T00:52:15.643Z,102757.00
2019-02-26T00:54:46.444Z,102756.00
2019-02-26T00:57:17.830Z,102770.00
2019-02-26T00:59:50.159Z,102772.00
2019-02-26T01:02:21.497Z,102769.00
2019-02-26T01:04:51.913Z,102769.00
2019-02-26T01:07:23.856Z,102774.00
2019-02-26T01:09:56.879Z,102769.00
2019-02-26T01:12:27.582Z,102772.00
2019-02-26T01:14:57.938Z,102765.00
2019-02-26T01:17:28.321Z,102767.00
2019-02-26T01:19:59.329Z,102770.00
2019-02-26T01:22:33.045Z,102774.00
2019-02-26T01:25:03.783Z,102765.00
2019-02-26T01:27:34.487Z,102753.00
2019-02-26T01:30:05.530Z,102753.00
2019-02-26T01:32:35.844Z,102752.00
2019-02-26T01:35:08.896Z,102737.00
2019-02-26T01:37:39.603Z,102739.00
2019-02-26T01:40:13.774Z,102736.00
2019-02-26T01:42:47.298Z,102728.00
2019-02-26T01:45:19.393Z,102730.00
2019-02-26T01:47:50.446Z,102728.00
2019-02-26T01:50:21.126Z,102734.00
2019-02-26T01:52:53.989Z,102725.00
2019-02-26T01:55:25.308Z,102735.00
2019-02-26T01:57:58.722Z,102718.00
2019-02-26T02:00:29.067Z,102717.00
2019-02-26T02:02:59.529Z,102709.00
2019-02-26T02:05:31.386Z,102705.00
2019-02-26T02:08:01.750Z,102719.00
2019-02-26T02:10:32.147Z,102717.00
2019-02-26T02:13:04.624Z,102717.00
2019-02-26T02:15:35.721Z,102715.00
2019-02-26T02:18:07.123Z,102712.00
2019-02-26T02:20:37.975Z,102714.00
2019-02-26T02:23:08.699Z,102718.00
2019-02-26T02:25:40.891Z,102710.00
2019-02-26T02:28:11.508Z,102706.00
2019-02-26T02:30:42.601Z,102708.00
2019-02-26T02:33:17.267Z,102703.00
2019-02-26T02:35:45.486Z,102708.00
2019-02-26T02:38:19.429Z,102697.00
2019-02-26T02:40:49.789Z,102703.00
2019-02-26T02:43:23.368Z,102702.00
2019-02-26T02:45:55.130Z,102693.00
2019-02-26T02:48:36.110Z,102697.00
2019-02-26T02:51:08.453Z,102678.00
2019-02-26T02:53:39.198Z,102678.00
2019-02-26T02:56:10.622Z,102680.00
2019-02-26T02:58:44.226Z,102686.00
2019-02-26T03:01:16.640Z,102691.00
2019-02-26T03:03:47.772Z,102688.00
2019-02-26T03:06:18.827Z,102678.00
2019-02-26T03:08:51.091Z,102682.00
2019-02-26T03:11:21.579Z,102686.00
2019-02-26T03:13:53.871Z,102687.00
2019-02-26T03:16:26.805Z,102692.00
2019-02-26T03:18:56.085Z,102691.00
2019-02-26T03:21:27.897Z,102689.00
2019-02-26T03:24:00.863Z,102699.00
2019-02-26T03:26:32.111Z,102698.00
2019-02-26T03:29:02.445Z,102702.00
2019-02-26T03:31:35.126Z,102694.00
2019-02-26T03:34:10.524Z,102695.00
2019-02-26T03:36:38.294Z,102689.00
2019-02-26T03:39:09.427Z,102695.00
2019-02-26T03:41:39.953Z,102691.00
2019-02-26T03:44:10.324Z,102688.00
2019-02-26T03:46:41.067Z,102687.00
2019-02-26T03:49:11.769Z,102678.00
2019-02-26T03:51:42.559Z,102679.00
2019-02-26T03:54:13.029Z,102681.00
2019-02-26T03:56:44.973Z,102689.00
2019-02-26T03:59:15.440Z,102691.00
2019-02-26T04:01:46.144Z,102705.00
2019-02-26T04:04:17.120Z,102705.00
2019-02-26T04:06:47.979Z,102705.00
2019-02-26T04:09:19.612Z,102711.00
2019-02-26T04:11:53.422Z,102704.00
2019-02-26T04:14:25.608Z,102705.00
2019-02-26T04:16:57.958Z,102712.00
2019-02-26T04:19:27.843Z,102715.00
2019-02-26T04:22:32.421Z,102708.00
2019-02-26T04:25:16.901Z,102713.00
2019-02-26T04:28:30.780Z,102717.00
2019-02-26T04:32:15.186Z,102697.00
2019-02-26T04:35:23.818Z,102709.00
2019-02-26T04:38:31.766Z,102700.00
2019-02-26T04:41:15.939Z,102696.00
2019-02-26T04:44:58.963Z,102706.00
2019-02-26T04:47:33.942Z,102695.00
2019-02-26T04:50:06.269Z,102703.00
2019-02-26T04:52:38.293Z,102698.00
2019-02-26T04:55:09.355Z,102696.00
2019-02-26T04:57:42.606Z,102695.00
2019-02-26T05:00:12.223Z,102693.00
2019-02-26T05:02:42.637Z,102697.00
2019-02-26T05:05:13.460Z,102695.00
2019-02-26T05:07:47.024Z,102692.00
2019-02-26T05:10:16.534Z,102690.00
2019-02-26T05:12:47.220Z,102688.00
2019-02-26T05:15:20.292Z,102693.00
2019-02-26T05:17:49.797Z,102704.00
2019-02-26T05:20:20.577Z,102689.00
2019-02-26T05:22:54.654Z,102691.00
2019-02-26T05:25:25.265Z,102694.00
2019-02-26T05:27:55.715Z,102698.00
2019-02-26T05:30:26.744Z,102709.00
2019-02-26T05:33:00.187Z,102700.00
2019-02-26T05:35:29.271Z,102699.00
2019-02-26T05:38:01.575Z,102693.00
2019-02-26T05:40:32.067Z,102687.00
2019-02-26T05:43:04.700Z,102684.00
2019-02-26T05:45:35.761Z,102680.00
2019-02-26T05:48:06.779Z,102674.00
2019-02-26T05:50:39.441Z,102678.00
2019-02-26T05:53:12.737Z,102683.00
2019-02-26T05:55:45.101Z,102678.00
2019-02-26T05:58:16.402Z,102671.00
2019-02-26T06:00:46.922Z,102681.00
2019-02-26T06:03:18.672Z,102674.00
2019-02-26T06:05:51.895Z,102688.00
2019-02-26T06:08:25.687Z,102681.00
2019-02-26T06:10:53.645Z,102690.00
2019-02-26T06:13:24.462Z,102695.00
2019-02-26T06:15:57.703Z,102694.00
2019-02-26T06:18:28.090Z,102704.00
2019-02-26T06:21:00.671Z,102693.00
2019-02-26T06:23:34.009Z,102699.00
2019-02-26T06:26:13.299Z,102684.00
2019-02-26T06:28:40.942Z,102698.00
2019-02-26T06:31:14.655Z,102695.00
2019-02-26T06:33:45.927Z,102695.00
2019-02-26T06:36:18.623Z,102687.00
2019-02-26T06:38:51.835Z,102690.00
2019-02-26T06:41:22.084Z,102709.00
2019-02-26T06:43:54.959Z,102696.00
2019-02-26T06:46:26.971Z,102700.00
2019-02-26T06:48:57.765Z,102712.00
2019-02-26T06:51:30.507Z,102711.00
2019-02-26T06:54:01.176Z,102707.00
2019-02-26T06:56:34.509Z,102703.00
2019-02-26T06:59:12.281Z,102713.00
2019-02-26T07:01:42.613Z,102701.00
2019-02-26T07:04:13.120Z,102714.00
2019-02-26T07:06:43.755Z,102706.00
2019-02-26T07:09:16.415Z,102708.00
2019-02-26T07:11:47.294Z,102710.00
2019-02-26T07:14:17.711Z,102710.00
2019-02-26T07:16:48.135Z,102715.00
2019-02-26T07:19:18.975Z,102716.00
2019-02-26T07:21:51.291Z,102730.00
2019-02-26T07:24:24.349Z,102732.00
2019-02-26T07:26:54.838Z,102724.00
2019-02-26T07:29:25.353Z,102721.00
2019-02-26T07:31:57.116Z,102724.00
2019-02-26T07:34:28.547Z,102727.00
2019-02-26T07:36:59.047Z,102722.00
2019-02-26T07:39:29.486Z,102735.00
2019-02-26T07:42:19.301Z,102726.00
2019-02-26T07:44:52.824Z,102733.00
2019-02-26T07:47:24.414Z,102738.00
2019-02-26T07:50:00.768Z,102732.00
2019-02-26T07:52:31.147Z,102722.00
2019-02-26T07:55:03.829Z,102723.00
2019-02-26T07:57:34.944Z,102726.00
2019-02-26T08:00:07.151Z,102722.00
2019-02-26T08:02:37.566Z,102729.00
2019-02-26T08:05:09.380Z,102722.00
2019-02-26T08:07:40.041Z,102726.00
2019-02-26T08:10:16.795Z,102721.00
2019-02-26T08:12:46.705Z,102718.00
2019-02-26T08:15:18.463Z,102729.00
2019-02-26T08:17:53.213Z,102723.00
2019-02-26T08:20:21.237Z,102717.00
2019-02-26T08:22:54.086Z,102721.00
2019-02-26T08:25:24.230Z,102700.00
2019-02-26T08:27:56.520Z,102710.00
2019-02-26T08:30:27.675Z,102703.00
2019-02-26T08:33:04.327Z,102708.00
2019-02-26T08:35:33.574Z,102708.00
2019-02-26T08:38:06.219Z,102706.00
2019-02-26T08:40:36.855Z,102702.00
2019-02-26T08:43:07.275Z,102709.00
2019-02-26T08:45:39.817Z,102708.00
2019-02-26T08:48:10.338Z,102715.00
2019-02-26T08:50:42.247Z,102711.00
2019-02-26T08:53:13.485Z,102716.00
2019-02-26T08:55:43.900Z,102717.00
2019-02-26T08:58:14.943Z,102715.00
2019-02-26T09:00:45.407Z,102698.00
2019-02-26T09:03:17.976Z,102713.00
2019-02-26T09:05:49.355Z,102718.00
2019-02-26T09:08:20.988Z,102714.00
2019-02-26T09:10:57.832Z,102723.00
2019-02-26T09:13:30.794Z,102722.00
2019-02-26T09:16:05.521Z,102733.00
2019-02-26T09:18:40.762Z,102737.00
2019-02-26T09:21:17.844Z,102731.00
2019-02-26T09:23:51.953Z,102735.00
2019-02-26T09:26:21.058Z,102724.00
2019-02-26T09:28:52.369Z,102740.00
2019-02-26T09:31:24.063Z,102734.00
2019-02-26T09:33:54.416Z,102725.00
2019-02-26T09:36:26.200Z,102728.00
2019-02-26T09:38:57.401Z,102736.00
2019-02-26T09:41:27.822Z,102726.00
2019-02-26T09:43:59.372Z,102726.00
2019-02-26T09:46:31.770Z,102717.00
2019-02-26T09:49:04.978Z,102727.00
2019-02-26T09:51:37.448Z,102723.00
2019-02-26T09:54:07.873Z,102721.00
2019-02-26T09:56:38.389Z,102720.00
2019-02-26T09:59:10.310Z,102719.00
2019-02-26T10:01:42.817Z,102717.00
2019-02-26T10:04:13.308Z,102718.00
2019-02-26T10:07:04.334Z,102713.00
2019-02-26T10:09:37.567Z,102707.00
2019-02-26T10:12:10.025Z,102713.00
2019-02-26T10:14:39.987Z,102715.00
2019-02-26T10:17:12.434Z,102708.00
2019-02-26T10:19:44.536Z,102704.00
2019-02-26T10:22:15.117Z,102701.00
2019-02-26T10:24:45.746Z,102699.00
2019-02-26T10:27:16.510Z,102695.00
2019-02-26T10:29:48.037Z,102704.00
2019-02-26T10:32:20.043Z,102699.00
2019-02-26T10:34:50.950Z,102701.00
2019-02-26T10:37:21.609Z,102701.00
2019-02-26T10:39:54.416Z,102704.00
2019-02-26T10:42:24.629Z,102684.00
2019-02-26T10:44:54.978Z,102685.00
2019-02-26T10:47:27.340Z,102691.00
2019-02-26T10:49:57.647Z,102693.00
2019-02-26T10:52:28.786Z,102691.00
2019-02-26T10:54:59.353Z,102687.00
2019-02-26T10:57:31.089Z,102689.00
2019-02-26T11:00:03.529Z,102681.00
2019-02-26T11:02:40.581Z,102679.00
2019-02-26T11:05:14.104Z,102686.00
2019-02-26T11:07:44.465Z,102684.00
2019-02-26T11:10:17.517Z,102691.00
2019-02-26T11:12:48.227Z,102687.00
2019-02-26T11:15:23.844Z,102685.00
2019-02-26T11:17:55.929Z,102677.00
2019-02-26T11:20:28.352Z,102665.00
2019-02-26T11:22:58.219Z,102674.00
2019-02-26T11:25:28.597Z,102669.00
2019-02-26T11:28:00.581Z,102672.00
2019-02-26T11:30:32.167Z,102673.00
2019-02-26T11:33:06.095Z,102681.00
2019-02-26T11:35:46.295Z,102668.00
2019-02-26T11:38:17.114Z,102662.00
2019-02-26T11:40:48.661Z,102672.00
2019-02-26T11:43:22.550Z,102679.00
2019-02-26T11:45:51.256Z,102684.00
2019-02-26T11:48:23.378Z,102669.00
2019-02-26T11:50:54.571Z,102664.00
2019-02-26T11:53:24.988Z,102656.00
2019-02-26T11:55:56.935Z,102660.00
2019-02-26T11:58:27.532Z,102659.00
2019-02-26T12:01:01.234Z,102662.00
2019-02-26T12:03:34.107Z,102661.00
2019-02-26T12:06:06.870Z,102657.00
2019-02-26T12:08:38.009Z,102656.00
2019-02-26T12:11:13.496Z,102655.00
2019-02-26T12:13:42.828Z,102654.00
2019-02-26T12:16:14.287Z,102648.00
2019-02-26T12:18:47.040Z,102653.00
2019-02-26T12:21:17.231Z,102645.00
2019-02-26T12:23:48.148Z,102628.00
2019-02-26T12:26:22.025Z,102632.00
2019-02-26T12:28:52.814Z,102630.00
2019-02-26T12:31:25.266Z,102622.00
2019-02-26T12:33:56.300Z,102634.00
2019-02-26T12:36:29.892Z,102630.00
2019-02-26T12:39:02.289Z,102623.00
2019-02-26T12:41:33.257Z,102622.00
2019-02-26T12:44:10.644Z,102616.00
2019-02-26T12:46:36.539Z,102620.00
2019-02-26T12:49:09.417Z,102617.00
2019-02-26T12:51:39.054Z,102606.00
2019-02-26T12:54:12.638Z,102605.00
2019-02-26T12:56:42.038Z,102603.00
2019-02-26T12:59:12.444Z,102608.00
2019-02-26T13:01:46.395Z,102601.00
2019-02-26T13:04:19.611Z,102592.00
2019-02-26T13:06:51.737Z,102587.00
2019-02-26T13:09:19.982Z,102591.00
2019-02-26T13:12:00.960Z,102586.00
2019-02-26T13:14:23.009Z,102583.00
2019-02-26T13:16:57.093Z,102585.00
2019-02-26T13:22:05.129Z,102573.00
2019-02-26T13:24:30.850Z,102570.00
2019-02-26T13:27:01.869Z,102574.00
2019-02-26T13:29:32.576Z,102577.00
2019-02-26T13:32:07.848Z,102574.00
2019-02-26T13:34:37.143Z,102563.00
2019-02-26T13:37:07.538Z,102556.00
2019-02-26T13:39:41.215Z,102561.00
2019-02-26T13:42:13.986Z,102558.00
2019-02-26T13:44:42.689Z,102544.00
2019-02-26T13:47:13.325Z,102547.00
2019-02-26T13:49:44.113Z,102546.00
2019-02-26T13:52:14.537Z,102541.00
2019-02-26T13:54:45.655Z,102546.00
2019-02-26T13:57:16.083Z,102546.00
2019-02-26T13:59:47.752Z,102551.00
2019-02-26T14:02:19.467Z,102548.00
2019-02-26T14:04:52.074Z,102557.00
2019-02-26T14:07:24.592Z,102552.00
2019-02-26T14:09:57.176Z,102549.00
2019-02-26T14:12:27.624Z,102542.00
2019-02-26T14:14:58.004Z,102544.00
2019-02-26T14:17:28.390Z,102532.00
2019-02-26T14:20:02.936Z,102535.00
2019-02-26T14:22:33.543Z,102526.00
2019-02-26T14:25:04.002Z,102532.00
2019-02-26T14:27:40.710Z,102529.00
2019-02-26T14:30:12.544Z,102526.00
2019-02-26T14:32:42.887Z,102529.00
2019-02-26T14:35:15.310Z,102523.00
2019-02-26T14:37:46.811Z,102517.00
2019-02-26T14:40:17.181Z,102521.00
2019-02-26T14:42:48.109Z,102515.00
2019-02-26T14:45:18.521Z,102515.00
2019-02-26T14:47:48.935Z,102513.00
2019-02-26T14:50:19.296Z,102508.00
2019-02-26T14:52:49.896Z,102506.00
2019-02-26T14:55:20.566Z,102501.00
2019-02-26T14:57:51.173Z,102515.00
2019-02-26T15:00:29.083Z,102510.00
2019-02-26T15:02:59.962Z,102505.00
2019-02-26T15:05:30.769Z,102499.00
2019-02-26T15:08:01.214Z,102505.00
2019-02-26T15:10:31.715Z,102501.00
2019-02-26T15:13:03.563Z,102491.00
2019-02-26T15:15:33.968Z,102491.00
2019-02-26T15:18:04.374Z,102489.00
2019-02-26T15:20:35.132Z,102490.00
2019-02-26T15:23:06.005Z,102487.00
2019-02-26T15:25:36.596Z,102500.00
2019-02-26T15:28:07.793Z,102495.00
2019-02-26T15:30:38.636Z,102495.00
2019-02-26T15:33:11.328Z,102495.00
2019-02-26T15:35:41.546Z,102489.00
2019-02-26T15:38:12.234Z,102499.00
2019-02-26T15:40:42.647Z,102493.00
2019-02-26T15:43:12.987Z,102485.00
2019-02-26T15:45:51.825Z,102483.00
2019-02-26T15:48:21.869Z,102497.00
2019-02-26T15:50:52.255Z,102488.00
2019-02-26T15:53:23.799Z,102476.00
2019-02-26T15:55:59.150Z,102479.00
2019-02-26T15:58:26.893Z,102483.00
2019-02-26T16:00:57.494Z,102476.00
2019-02-26T16:03:29.718Z,102471.00
2019-02-26T16:06:00.582Z,102468.00
2019-02-26T16:08:34.548Z,102465.00
2019-02-26T16:11:03.840Z,102471.00
2019-02-26T16:13:34.234Z,102467.00
2019-02-26T16:16:04.621Z,102469.00
2019-02-26T16:18:50.167Z,102473.00
2019-02-26T16:21:20.839Z,102480.00
2019-02-26T16:23:51.228Z,102472.00
2019-02-26T16:26:21.599Z,102474.00
2019-02-26T16:28:52.206Z,102478.00
2019-02-26T16:31:22.554Z,102476.00
2019-02-26T16:33:53.193Z,102464.00
2019-02-26T16:36:23.569Z,102464.00
2019-02-26T16:38:54.880Z,102464.00
2019-02-26T16:41:25.375Z,102456.00
2019-02-26T16:43:55.854Z,102467.00
2019-02-26T16:46:26.230Z,102463.00
2019-02-26T16:48:56.691Z,102468.00
2019-02-26T16:51:27.394Z,102462.00
2019-02-26T16:53:58.072Z,102464.00
2019-02-26T16:56:28.902Z,102463.00
2019-02-26T16:58:59.635Z,102467.00
2019-02-26T17:01:30.000Z,102463.00
2019-02-26T17:04:00.587Z,102477.00
2019-02-26T17:06:31.976Z,102465.00
2019-02-26T17:09:02.310Z,102470.00
2019-02-26T17:11:32.743Z,102476.00
2019-02-26T17:14:03.247Z,102473.00
2019-02-26T17:16:33.906Z,102471.00
2019-02-26T17:19:10.535Z,102468.00
2019-02-26T17:21:40.731Z,102473.00
2019-02-26T17:24:11.242Z,102477.00
2019-02-26T17:26:41.901Z,102478.00
2019-02-26T17:29:12.284Z,102474.00
2019-02-26T17:31:44.801Z,102477.00
2019-02-26T17:34:15.202Z,102483.00
2019-02-26T17:36:46.139Z,102481.00
2019-02-26T17:39:16.546Z,102477.00
2019-02-26T17:41:46.889Z,102487.00
2019-02-26T17:44:17.384Z,102487.00
2019-02-26T17:46:47.743Z,102482.00
2019-02-26T17:49:18.425Z,102485.00
2019-02-26T17:51:49.045Z,102480.00
2019-02-26T17:54:20.423Z,102487.00
2019-02-26T17:56:51.979Z,102493.00
2019-02-26T17:59:22.638Z,102492.00
2019-02-26T18:01:53.284Z,102494.00
2019-02-26T18:04:23.656Z,102496.00
2019-02-26T18:06:54.055Z,102493.00
2019-02-26T18:09:24.442Z,102486.00
2019-02-26T18:11:55.210Z,102489.00
2019-02-26T18:14:25.825Z,102491.00
2019-02-26T18:16:56.305Z,102489.00
2019-02-26T18:19:26.782Z,102484.00
2019-02-26T18:21:57.688Z,102485.00
2019-02-26T18:24:32.282Z,102485.00
2019-02-26T18:27:02.651Z,102481.00
2019-02-26T18:29:33.041Z,102468.00
2019-02-26T18:32:04.482Z,102482.00
2019-02-26T18:34:34.877Z,102488.00
2019-02-26T18:37:05.846Z,102482.00
2019-02-26T18:39:36.631Z,102491.00
2019-02-26T18:42:08.270Z,102479.00
2019-02-26T18:44:39.086Z,102485.00
2019-02-26T18:47:09.987Z,102481.00
2019-02-26T18:49:40.380Z,102478.00
2019-02-26T18:52:11.152Z,102488.00
2019-02-26T18:54:41.864Z,102474.00
2019-02-26T18:57:12.619Z,102481.00
2019-02-26T18:59:43.033Z,102478.00
2019-02-26T19:02:13.718Z,102478.00
2019-02-26T19:04:48.292Z,102476.00
2019-02-26T19:07:16.579Z,102480.00
2019-02-26T19:09:47.709Z,102479.00
2019-02-26T19:12:31.074Z,102477.00
2019-02-26T19:15:01.968Z,102472.00
2019-02-26T19:17:32.319Z,102464.00
2019-02-26T19:20:02.917Z,102472.00
2019-02-26T19:22:33.551Z,102470.00
2019-02-26T19:25:03.933Z,102467.00
2019-02-26T19:27:34.663Z,102471.00
2019-02-26T19:30:05.586Z,102484.00
2019-02-26T19:32:36.352Z,102480.00
2019-02-26T19:35:12.279Z,102482.00
2019-02-26T19:37:40.369Z,102481.00
2019-02-26T19:40:14.208Z,102476.00
2019-02-26T19:42:45.149Z,102480.00
2019-02-26T19:45:15.766Z,102480.00
2019-02-26T19:47:47.179Z,102475.00
2019-02-26T19:50:17.607Z,102483.00
2019-02-26T19:52:56.396Z,102483.00
2019-02-26T19:55:26.134Z,102486.00
2019-02-26T19:57:56.795Z,102471.00
2019-02-26T20:00:27.213Z,102472.00
2019-02-26T20:02:57.545Z,102470.00
2019-02-26T20:05:27.980Z,102472.00
2019-02-26T20:07:59.203Z,102462.00
2019-02-26T20:10:30.622Z,102468.00
2019-02-26T20:13:03.879Z,102457.00
2019-02-26T20:15:33.771Z,102458.00
2019-02-26T20:18:04.572Z,102469.00
2019-02-26T20:20:40.761Z,102464.00
2019-02-26T20:23:08.054Z,102465.00
2019-02-26T20:25:42.478Z,102464.00
2019-02-26T20:28:10.544Z,102461.00
2019-02-26T20:30:41.166Z,102457.00
2019-02-26T20:33:30.632Z,102459.00
2019-02-26T20:36:01.998Z,102459.00
2019-02-26T20:38:35.160Z,102455.00
2019-02-26T20:41:04.409Z,102454.00
2019-02-26T20:43:36.923Z,102450.00
2019-02-26T20:46:07.086Z,102455.00
2019-02-26T20:48:37.796Z,102442.00
2019-02-26T20:51:08.209Z,102448.00
2019-02-26T20:53:39.764Z,102445.00
2019-02-26T20:56:10.719Z,102434.00
2019-02-26T20:58:44.665Z,102442.00
2019-02-26T21:01:13.547Z,102446.00
2019-02-26T21:03:44.138Z,102448.00
2019-02-26T21:06:15.658Z,102443.00
2019-02-26T21:08:47.175Z,102433.00
2019-02-26T21:11:22.495Z,102434.00
2019-02-26T21:13:50.594Z,102437.00
2019-02-26T21:16:21.473Z,102434.00
2019-02-26T21:18:52.225Z,102439.00
2019-02-26T21:21:22.617Z,102428.00
2019-02-26T21:23:52.946Z,102425.00
2019-02-26T21:26:23.633Z,102431.00
2019-02-26T21:28:53.987Z,102429.00
2019-02-26T21:31:24.307Z,102422.00
2019-02-26T21:33:55.326Z,102433.00
2019-02-26T21:36:28.003Z,102430.00
2019-02-26T21:38:58.315Z,102428.00
2019-02-26T21:41:28.670Z,102427.00
2019-02-26T21:43:59.911Z,102436.00
2019-02-26T21:46:30.228Z,102429.00
2019-02-26T21:49:01.064Z,102428.00
2019-02-26T21:51:33.728Z,102423.00
2019-02-26T21:54:04.067Z,102423.00
2019-02-26T21:56:34.408Z,102424.00
2019-02-26T21:59:04.750Z,102422.00
2019-02-26T22:01:35.684Z,102423.00
2019-02-26T22:04:06.082Z,102427.00
2019-02-26T22:06:36.505Z,102417.00
2019-02-26T22:09:07.956Z,102425.00
2019-02-26T22:11:38.615Z,102422.00
2019-02-26T22:14:09.896Z,102428.00
2019-02-26T22:16:40.376Z,102421.00
2019-02-26T22:19:11.112Z,102419.00
2019-02-26T22:21:52.180Z,102429.00
2019-02-26T22:24:22.482Z,102419.00
2019-02-26T22:26:54.142Z,102418.00
2019-02-26T22:29:24.506Z,102418.00
2019-02-26T22:31:54.842Z,102413.00
2019-02-26T22:34:25.146Z,102414.00
2019-02-26T22:36:55.930Z,102405.00
2019-02-26T22:39:26.717Z,102398.00
2019-02-26T22:41:57.063Z,102415.00
2019-02-26T22:44:27.746Z,102412.00
2019-02-26T22:46:59.158Z,102400.00
2019-02-26T22:49:30.095Z,102407.00
2019-02-26T22:52:00.486Z,102409.00
2019-02-26T22:54:30.841Z,102409.00
2019-02-26T22:57:01.293Z,102413.00
2019-02-26T22:59:32.465Z,102399.00
2019-02-26T23:02:03.202Z,102410.00
2019-02-26T23:04:33.922Z,102402.00
2019-02-26T23:07:06.704Z,102391.00
2019-02-26T23:09:37.958Z,102386.00
2019-02-26T23:12:09.097Z,102388.00
2019-02-26T23:14:40.022Z,102385.00
2019-02-26T23:17:11.546Z,102386.00
2019-02-26T23:19:42.250Z,102385.00
2019-02-26T23:22:13.187Z,102369.00
2019-02-26T23:24:44.449Z,102384.00
2019-02-26T23:27:15.242Z,102386.00
2019-02-26T23:29:46.709Z,102378.00
2019-02-26T23:32:17.333Z,102392.00
2019-02-26T23:35:05.600Z,102387.00
2019-02-26T23:37:36.319Z,102382.00
2019-02-26T23:40:07.946Z,102368.00
2019-02-26T23:42:39.686Z,102377.00
2019-02-26T23:45:10.299Z,102377.00
2019-02-26T23:47:40.651Z,102381.00
2019-02-26T23:50:11.087Z,102392.00
2019-02-26T23:52:41.722Z,102387.00
2019-02-26T23:55:13.348Z,102385.00
2019-02-26T23:57:44.559Z,102388.00
